Latest Weather Observations for Red Rocks Point

IDW60801

Issued at 9:02 am WST Tuesday 27 January 2015 (issued every 30 minutes, with the page automatically refreshed every 10 minutes)

About weather observations | Map of weather stations | Latest weather observations for WA | Other Formats
Station Details ID: 011053 Name: RED ROCKS POINT Lat: -32.20 Lon: 127.53 Height: 3.1 m
Data from the previous 72 hours. | See also: Recent months for locations in Western Australia
Date/Time
WST
Temp
°C
App
Temp
°C
Dew
Point
Rel
Hum
%
Delta-T
°C
Wind Press
QNH
hPa
Press
MSL
hPa
Rain
since 9 am
mm
Dir
 
Spd
km/h
Gust
km/h
Spd
kts
Gust
kts
27/09:00am 21.1 15.6 12.5 58 4.8 E 33 39 18 21 1019.1 1019.1 0.0
27/08:30am 20.9 15.5 12.8 60 4.6 E 33 41 18 22 1019.0 - 0.0
27/08:00am 21.0 16.0 13.4 62 4.4 E 32 41 17 22 1018.8 - 0.0
27/07:30am 20.1 15.5 13.6 66 3.7 E 30 37 16 20 1019.1 - 0.0
27/07:00am 19.7 13.5 12.7 64 3.9 E 37 50 20 27 1018.8 - 0.0
27/06:30am 20.0 14.3 13.0 64 4.0 E 35 43 19 23 1018.4 - 0.0
27/06:00am 19.4 14.1 13.1 67 3.6 E 33 41 18 22 1018.3 - 0.0
27/05:30am 19.1 13.9 12.8 67 3.5 E 32 41 17 22 1018.1 - 0.0
27/05:00am 18.6 12.5 11.9 65 3.7 E 35 41 19 22 1017.8 - 0.0
27/04:30am 18.7 13.8 12.5 67 3.5 E 30 39 16 21 1017.5 - 0.0
27/04:00am 18.9 13.7 12.9 68 3.4 E 32 39 17 21 1017.2 - 0.0
27/03:30am 19.1 12.9 12.8 67 3.5 E 37 44 20 24 1017.1 - 0.0
27/03:00am 19.2 13.6 13.2 68 3.4 E 35 43 19 23 1017.1 1017.1 0.0
27/02:30am 19.3 14.1 13.5 69 3.3 E 33 41 18 22 1017.1 - 0.0
27/02:00am 19.4 13.8 13.3 68 3.5 E 35 43 19 23 1017.2 - 0.0
27/01:30am 19.4 13.7 13.1 67 3.6 E 35 41 19 22 1017.3 - 0.0
27/01:00am 19.3 14.0 12.6 65 3.8 E 32 43 17 23 1017.5 - 0.0
27/12:30am 19.5 13.4 13.0 66 3.7 E 37 44 20 24 1017.6 - 0.0
27/12:00am 19.4 13.7 12.9 66 3.7 E 35 43 19 23 1017.9 1017.9 0.0
 
Date/Time
WST
Temp
°C
App
Temp
°C
Dew
Point
Rel
Hum
%
Delta-T
°C
Wind Press
QNH
hPa
Press
MSL
hPa
Rain
since 9 am
mm
Dir
 
Spd
km/h
Gust
km/h
Spd
kts
Gust
kts
26/11:30pm 19.5 14.3 12.7 65 3.8 E 32 41 17 22 1018.0 - 0.0
26/11:00pm 19.4 14.0 12.7 65 3.8 E 33 41 18 22 1018.1 - 0.0
26/10:30pm 19.3 13.5 12.8 66 3.7 E 35 44 19 24 1018.2 - 0.0
26/10:00pm 19.5 13.7 12.7 65 3.8 E 35 43 19 23 1018.3 - 0.0
26/09:30pm 19.5 13.6 12.5 64 3.9 ESE 35 43 19 23 1018.4 - 0.0
26/09:00pm 19.7 14.1 13.2 66 3.7 E 35 43 19 23 1018.6 1018.6 0.0
26/08:30pm 19.6 13.9 13.1 66 3.7 ESE 35 43 19 23 1018.7 - 0.0
26/08:00pm 19.6 13.9 13.1 66 3.7 ESE 35 41 19 22 1018.8 - 0.0
26/07:30pm 19.6 13.8 12.6 64 3.9 ESE 35 41 19 22 1018.7 - 0.0
26/07:00pm 19.6 14.2 12.8 65 3.8 E 33 41 18 22 1018.6 - 0.0
26/06:30pm 19.8 14.8 14.0 69 3.3 ESE 33 41 18 22 1018.6 - 0.0
26/06:00pm 19.6 13.8 12.6 64 3.9 ESE 35 41 19 22 1018.3 1018.3 0.0
26/05:30pm 20.1 15.0 13.8 67 3.6 ESE 33 41 18 22 1018.2 - 0.0
26/05:00pm 20.3 15.1 13.5 65 3.9 ESE 33 39 18 21 1018.1 - 0.0
26/04:30pm 20.6 15.4 12.8 61 4.4 ESE 32 37 17 20 1018.2 - 0.0
26/04:00pm 20.6 15.7 13.6 64 4.0 ESE 32 39 17 21 1018.4 - 0.0
26/03:30pm 20.6 15.4 12.8 61 4.4 ESE 32 39 17 21 1018.4 - 0.0
26/03:00pm 20.9 15.9 13.4 62 4.3 ESE 32 39 17 21 1018.6 1018.6 0.0
26/02:30pm 21.1 16.4 13.3 61 4.5 ESE 30 37 16 20 1018.6 - 0.0
26/02:00pm 21.7 17.1 13.6 60 4.7 ESE 30 37 16 20 1018.7 - 0.0
26/01:30pm 21.4 16.4 12.3 56 5.1 ESE 30 35 16 19 1019.0 - 0.0
26/01:00pm 22.3 17.6 13.1 56 5.3 ESE 30 39 16 21 1019.0 - 0.0
26/12:30pm 22.5 17.4 11.9 51 6.0 ESE 30 35 16 19 1019.2 - 0.0
26/12:00pm 20.9 16.5 11.8 56 5.1 ESE 26 33 14 18 1019.7 1019.7 0.0
26/11:30am 21.3 17.2 11.6 54 5.4 ESE 24 32 13 17 1020.0 - 0.0
26/11:00am 20.7 16.8 12.1 58 4.8 SE 24 30 13 16 1020.0 - 0.0
26/10:30am 20.6 17.0 11.8 57 4.9 ESE 22 30 12 16 1020.4 - 0.0
26/10:00am 20.4 16.6 11.3 56 5.0 ESE 22 28 12 15 1020.5 - 0.0
26/09:30am 20.6 16.9 11.5 56 5.0 ESE 22 28 12 15 1020.6 - 0.0
26/09:00am 20.1 16.0 11.6 58 4.7 ESE 24 33 13 18 1020.7 1020.7 0.0
26/08:30am 19.9 15.2 10.6 55 5.0 E 26 32 14 17 1020.6 - 0.0
26/08:00am 19.9 15.3 11.1 57 4.8 ESE 26 33 14 18 1020.5 - 0.0
26/07:30am 19.6 15.3 10.6 56 4.9 ESE 24 30 13 16 1020.5 - 0.0
26/07:00am 19.5 15.0 10.2 55 5.0 ESE 24 30 13 16 1020.4 - 0.0
26/06:30am 18.9 14.1 10.2 57 4.7 ESE 26 33 14 18 1020.1 - 0.0
26/06:00am 18.9 13.4 10.5 58 4.5 ESE 30 33 16 18 1019.7 1019.7 0.0
26/05:30am 18.8 13.4 10.9 60 4.3 E 30 35 16 19 1019.5 - 0.0
26/05:00am 18.7 14.5 11.0 61 4.2 E 24 35 13 19 1019.3 - 0.0
26/04:30am 18.7 14.1 11.0 61 4.2 ESE 26 35 14 19 1018.9 - 0.0
26/04:00am 18.6 13.3 9.9 57 4.6 E 28 37 15 20 1018.7 - 0.0
26/03:30am 18.7 13.7 11.0 61 4.2 ESE 28 37 15 20 1018.5 - 0.0
26/03:00am 18.6 13.4 10.4 59 4.4 ESE 28 35 15 19 1018.4 1018.4 0.0
26/02:30am 18.6 13.8 10.4 59 4.4 ESE 26 32 14 17 1018.5 - 0.0
26/02:00am 18.5 13.1 9.6 56 4.7 E 28 35 15 19 1018.5 - 0.0
26/01:30am 18.7 13.2 10.5 59 4.4 ESE 30 37 16 20 1018.4 - 0.0
26/01:00am 18.6 13.7 11.2 62 4.0 ESE 28 37 15 20 1018.4 - 0.0
26/12:30am 18.8 13.5 11.1 61 4.2 ESE 30 39 16 21 1018.5 - 0.0
26/12:00am 18.7 13.3 11.0 61 4.2 SE 30 35 16 19 1018.6 1018.6 0.0
 
Date/Time
WST
Temp
°C
App
Temp
°C
Dew
Point
Rel
Hum
%
Delta-T
°C
Wind Press
QNH
hPa
Press
MSL
hPa
Rain
since 9 am
mm
Dir
 
Spd
km/h
Gust
km/h
Spd
kts
Gust
kts
25/11:30pm 18.9 13.9 11.0 60 4.3 ESE 28 33 15 18 1018.9 - 0.0
25/11:00pm 18.8 13.6 10.4 58 4.5 SE 28 33 15 18 1019.0 - 0.0
25/10:30pm 18.8 14.6 9.8 56 4.8 ESE 22 32 12 17 1019.1 - 0.0
25/10:00pm 19.0 14.0 10.8 59 4.4 SE 28 35 15 19 1019.2 - 0.0
25/09:30pm 18.8 13.2 10.1 57 4.6 ESE 30 37 16 20 1019.3 - 0.0
25/09:00pm 19.0 14.0 11.1 60 4.3 ESE 28 39 15 21 1019.1 1019.1 0.0
25/08:30pm 18.8 13.9 9.8 56 4.8 SE 26 33 14 18 1019.2 - 0.0
25/08:00pm 19.0 13.6 10.8 59 4.4 SE 30 39 16 21 1019.2 - 0.0
25/07:30pm 18.9 14.2 10.7 59 4.4 ESE 26 33 14 18 1019.1 - 0.0
25/07:00pm 18.9 14.5 10.5 58 4.5 ESE 24 32 13 17 1019.3 - 0.0
25/06:30pm 18.9 14.3 11.0 60 4.3 ESE 26 35 14 19 1019.2 - 0.0
25/06:00pm 19.0 14.5 11.3 61 4.2 SE 26 35 14 19 1018.8 1018.8 0.0
25/05:30pm 19.3 15.2 11.3 60 4.4 SE 24 30 13 16 1018.5 - 0.0
25/05:00pm 19.8 15.1 10.8 56 4.9 SE 26 33 14 18 1018.2 - 0.0
25/04:30pm 19.6 15.3 11.9 61 4.3 SE 26 32 14 17 1018.0 - 0.0
25/04:00pm 20.1 15.7 11.6 58 4.7 SE 26 30 14 16 1018.3 - 0.0
25/03:30pm 20.9 17.0 12.1 57 4.9 SSE 24 30 13 16 1018.5 - 0.0
25/03:00pm 21.0 16.5 9.9 49 6.0 SSE 24 32 13 17 1018.6 1018.6 0.0
25/02:30pm 20.8 17.4 11.4 55 5.2 SSE 20 26 11 14 1018.7 - 0.0
25/02:00pm 22.2 18.7 12.2 53 5.6 SSE 22 30 12 16 1018.6 - 0.0
25/01:30pm 22.1 17.7 10.3 47 6.4 SSE 24 30 13 16 1018.7 - 0.0
25/01:00pm 22.3 18.5 11.1 49 6.2 S 22 28 12 15 1018.9 - 0.0
25/12:30pm 22.6 17.6 9.7 44 7.0 S 26 32 14 17 1018.8 - 0.0
25/12:00pm 21.7 17.2 10.2 48 6.2 SSE 24 30 13 16 1018.9 1018.9 0.0
25/11:30am 22.0 18.0 10.5 48 6.3 SSE 22 28 12 15 1019.0 - 0.0
25/11:00am 22.4 19.0 11.2 49 6.2 SSE 20 26 11 14 1019.2 - 0.0
25/10:30am 21.4 18.0 11.4 53 5.5 SSE 20 24 11 13 1019.2 - 0.0
25/10:00am 20.6 16.4 11.2 55 5.2 SE 24 28 13 15 1019.1 - 0.0
25/09:30am 20.8 16.7 11.4 55 5.2 SE 24 30 13 16 1018.8 - 0.0
25/09:00am 20.3 15.9 11.8 58 4.7 SSE 26 32 14 17 1018.5 1018.5 0.0
25/08:30am 20.2 15.7 12.7 62 4.2 SSE 28 35 15 19 1018.2 - 0.0
25/08:00am 21.0 17.1 13.2 61 4.5 SSE 26 32 14 17 1018.1 - 0.0
25/07:30am 20.1 16.1 11.8 59 4.6 SSE 24 28 13 15 1018.1 - 0.0
25/07:00am 20.2 16.5 12.7 62 4.2 SSE 24 30 13 16 1017.9 - 0.0
25/06:30am 19.9 16.3 12.9 64 4.0 SSE 24 32 13 17 1017.6 - 0.0
25/06:00am 18.9 14.8 12.6 67 3.5 S 26 30 14 16 1017.0 1017.0 0.0
25/05:30am 19.7 16.1 12.9 65 3.8 S 24 32 13 17 1016.4 - 0.0
25/05:00am 18.9 13.6 11.2 61 4.2 S 30 33 16 18 1016.1 - 0.0
25/04:30am 18.9 15.1 11.0 60 4.3 S 22 30 12 16 1015.8 - 0.0
25/04:00am 19.0 15.1 10.8 59 4.4 S 22 30 12 16 1015.7 - 0.0
25/03:30am 19.0 14.9 11.3 61 4.2 S 24 30 13 16 1015.5 - 0.0
25/03:00am 19.1 15.6 12.1 64 3.9 SSE 22 30 12 16 1015.6 1015.6 0.0
25/02:30am 18.8 15.4 12.5 67 3.5 SSE 22 28 12 15 1015.6 - 0.0
25/02:00am 18.7 15.9 13.1 70 3.2 SSE 20 26 11 14 1015.6 - 0.0
25/01:30am 18.8 15.4 13.6 72 3.0 SSE 24 30 13 16 1015.3 - 0.0
25/01:00am 18.8 15.2 13.2 70 3.2 SSE 24 28 13 15 1015.5 - 0.0
25/12:30am 19.1 15.0 13.9 72 3.0 SSE 28 32 15 17 1015.5 - 0.0
25/12:00am 19.3 15.4 13.2 68 3.5 S 26 33 14 18 1015.6 - 0.0
 
Date/Time
WST
Temp
°C
App
Temp
°C
Dew
Point
Rel
Hum
%
Delta-T
°C
Wind Press
QNH
hPa
Press
MSL
hPa
Rain
since 9 am
mm
Dir
 
Spd
km/h
Gust
km/h
Spd
kts
Gust
kts
24/11:30pm 19.2 16.4 13.2 68 3.4 SSE 20 26 11 14 1015.8 - 0.0
24/11:00pm 19.3 15.9 13.7 70 3.2 SSE 24 30 13 16 1015.6 - 0.0
24/10:30pm 19.5 15.6 14.3 72 3.0 SSE 28 33 15 18 1015.7 - 0.0
24/10:00pm 19.5 15.3 14.7 74 2.8 SE 30 35 16 19 1015.9 - 0.0
24/09:30pm 19.8 16.6 15.2 75 2.7 S 26 30 14 16 1016.0 - 0.0
24/09:00pm 19.6 15.2 14.0 70 3.2 S 30 35 16 19 1016.1 1016.1 0.0
24/08:30pm 19.8 15.8 14.2 70 3.2 S 28 32 15 17 1016.0 - 0.0
24/08:00pm 19.8 15.7 14.8 73 2.9 S 30 37 16 20 1015.8 - 0.0
24/07:30pm 19.8 15.6 13.5 67 3.6 S 28 35 15 19 1015.4 - 0.0
24/07:00pm 19.9 15.9 14.0 69 3.4 S 28 35 15 19 1015.0 - 0.0
24/06:30pm 20.1 15.7 14.2 69 3.4 S 30 35 16 19 1014.7 - 0.0
24/06:00pm 20.7 16.4 13.2 62 4.3 SSW 28 35 15 19 1014.6 1014.6 0.0
24/05:30pm 20.8 17.3 13.3 62 4.3 SSW 24 32 13 17 1014.4 - 0.0
24/05:00pm 22.2 18.4 13.5 57 5.0 SSW 26 35 14 19 1014.1 - 0.0
24/04:30pm 22.5 18.7 13.6 57 5.2 SSW 26 35 14 19 1014.1 - 0.0
24/04:00pm 22.2 18.4 13.5 57 5.0 SSW 26 35 14 19 1013.9 - 0.0
24/03:30pm 22.9 18.9 13.1 54 5.6 SSW 26 35 14 19 1013.9 - 0.0
24/03:00pm 23.5 19.7 13.7 54 5.7 SSW 26 37 14 20 1013.9 - 0.0
24/02:30pm 23.9 20.1 14.6 56 5.5 SSW 28 39 15 21 1013.8 - 0.0
24/02:00pm 24.8 20.9 14.3 52 6.2 SW 28 39 15 21 1013.8 - 0.0
24/01:30pm 25.0 21.3 13.9 50 6.5 SW 26 35 14 19 1013.9 - 0.0
24/01:00pm 24.7 20.1 12.3 46 7.1 SW 28 37 15 20 1013.9 - 0.0
24/12:30pm 25.6 21.4 12.4 43 7.6 SW 26 41 14 22 1013.9 - 0.0
24/12:00pm 23.8 19.1 12.1 48 6.6 SW 28 43 15 23 1014.0 1014.0 0.0
24/11:30am 25.0 20.7 13.2 48 6.9 SW 28 43 15 23 1014.0 - 0.0
24/11:00am 24.9 21.6 15.0 54 5.9 SW 26 39 14 21 1014.0 - 0.0
24/10:30am 25.5 22.1 13.7 48 6.9 SW 24 37 13 20 1014.0 - 0.0
24/10:00am 23.4 20.0 13.6 54 5.7 SW 24 35 13 19 1014.0 - 0.0
24/09:30am 24.4 20.5 13.3 50 6.5 SW 26 39 14 21 1013.9 - 0.0

Other Formats:

Comma delimited format used in spreadsheet applications
http://www.bom.gov.au/fwo/IDW60801/IDW60801.94644.axf

JavaScript Object Notation format (JSON) in row-major order
http://www.bom.gov.au/fwo/IDW60801/IDW60801.94644.json